sensor_id;sensor_type;location;lat;lon;timestamp;pressure;altitude;pressure_sealevel;temperature;humidity
53550;BME280;67273;52.914;-0.982;2023-04-20T00:00:43;102386.25;;;20.30;44.76
53550;BME280;67273;52.914;-0.982;2023-04-20T00:03:08;102390.06;;;20.29;44.71
53550;BME280;67273;52.914;-0.982;2023-04-20T00:05:35;102390.06;;;20.29;44.69
53550;BME280;67273;52.914;-0.982;2023-04-20T00:08:02;102386.69;;;20.27;44.74
53550;BME280;67273;52.914;-0.982;2023-04-20T00:10:27;102382.28;;;20.26;44.73
53550;BME280;67273;52.914;-0.982;2023-04-20T00:12:53;102377.88;;;20.25;44.94
53550;BME280;67273;52.914;-0.982;2023-04-20T00:15:19;102386.28;;;20.24;44.74
53550;BME280;67273;52.914;-0.982;2023-04-20T00:17:44;102388.16;;;20.23;44.77
53550;BME280;67273;52.914;-0.982;2023-04-20T00:20:11;102383.75;;;20.22;44.85
53550;BME280;67273;52.914;-0.982;2023-04-20T00:22:38;102382.06;;;20.21;44.76
53550;BME280;67273;52.914;-0.982;2023-04-20T00:25:05;102383.97;;;20.21;44.72
53550;BME280;67273;52.914;-0.982;2023-04-20T00:27:31;102380.41;;;20.20;44.80
53550;BME280;67273;52.914;-0.982;2023-04-20T00:29:56;102381.44;;;20.19;44.77
53550;BME280;67273;52.914;-0.982;2023-04-20T00:32:22;102384.16;;;20.19;44.76
53550;BME280;67273;52.914;-0.982;2023-04-20T00:34:48;102377.03;;;20.18;44.86
53550;BME280;67273;52.914;-0.982;2023-04-20T00:37:15;102372.81;;;20.16;44.84
53550;BME280;67273;52.914;-0.982;2023-04-20T00:39:42;102366.53;;;20.15;44.90
53550;BME280;67273;52.914;-0.982;2023-04-20T00:42:08;102376.59;;;20.14;44.87
53550;BME280;67273;52.914;-0.982;2023-04-20T00:44:34;102376.81;;;20.13;44.72
53550;BME280;67273;52.914;-0.982;2023-04-20T00:47:00;102371.34;;;20.13;44.74
53550;BME280;67273;52.914;-0.982;2023-04-20T00:49:28;102372.41;;;20.12;44.65
53550;BME280;67273;52.914;-0.982;2023-04-20T00:51:57;102364.41;;;20.10;45.10
53550;BME280;67273;52.914;-0.982;2023-04-20T00:54:23;102361.88;;;20.09;44.69
53550;BME280;67273;52.914;-0.982;2023-04-20T00:56:51;102367.34;;;20.09;44.88
53550;BME280;67273;52.914;-0.982;2023-04-20T00:59:16;102361.06;;;20.08;44.85
53550;BME280;67273;52.914;-0.982;2023-04-20T01:01:42;102354.75;;;20.08;44.74
53550;BME280;67273;52.914;-0.982;2023-04-20T01:04:08;102354.13;;;20.06;44.79
53550;BME280;67273;52.914;-0.982;2023-04-20T01:06:34;102347.81;;;20.05;44.81
53550;BME280;67273;52.914;-0.982;2023-04-20T01:09:00;102348.88;;;20.04;44.81
53550;BME280;67273;52.914;-0.982;2023-04-20T01:11:26;102337.09;;;20.04;44.79
53550;BME280;67273;52.914;-0.982;2023-04-20T01:13:53;102334.63;;;20.02;44.76
53550;BME280;67273;52.914;-0.982;2023-04-20T01:16:19;102330.19;;;20.01;44.77
53550;BME280;67273;52.914;-0.982;2023-04-20T01:18:45;102340.28;;;20.01;44.71
53550;BME280;67273;52.914;-0.982;2023-04-20T01:21:14;102330.41;;;20.00;44.81
53550;BME280;67273;52.914;-0.982;2023-04-20T01:23:42;102331.47;;;19.99;44.75
53550;BME280;67273;52.914;-0.982;2023-04-20T01:26:09;102327.03;;;19.98;44.69
53550;BME280;67273;52.914;-0.982;2023-04-20T01:28:35;102320.75;;;19.97;44.84
53550;BME280;67273;52.914;-0.982;2023-04-20T01:31:03;102319.91;;;19.97;44.75
53550;BME280;67273;52.914;-0.982;2023-04-20T01:33:31;102323.69;;;19.96;44.86
53550;BME280;67273;52.914;-0.982;2023-04-20T01:36:00;102316.53;;;19.94;44.81
53550;BME280;67273;52.914;-0.982;2023-04-20T01:38:30;102311.28;;;19.93;44.60
53550;BME280;67273;52.914;-0.982;2023-04-20T01:41:01;102321.38;;;19.92;44.63
53550;BME280;67273;52.914;-0.982;2023-04-20T01:43:33;102322.41;;;19.91;44.66
53550;BME280;67273;52.914;-0.982;2023-04-20T01:46:01;102318.00;;;19.90;44.61
53550;BME280;67273;52.914;-0.982;2023-04-20T01:48:27;102317.19;;;19.90;44.70
53550;BME280;67273;52.914;-0.982;2023-04-20T01:50:54;102314.66;;;19.88;44.78
53550;BME280;67273;52.914;-0.982;2023-04-20T01:53:23;102321.97;;;19.88;44.62
53550;BME280;67273;52.914;-0.982;2023-04-20T01:55:55;102315.69;;;19.87;44.72
53550;BME280;67273;52.914;-0.982;2023-04-20T01:58:25;102321.16;;;19.87;44.86
53550;BME280;67273;52.914;-0.982;2023-04-20T02:00:54;102317.78;;;19.85;44.66
53550;BME280;67273;52.914;-0.982;2023-04-20T02:03:23;102319.69;;;19.85;44.64
53550;BME280;67273;52.914;-0.982;2023-04-20T02:05:51;102318.00;;;19.84;44.71
53550;BME280;67273;52.914;-0.982;2023-04-20T02:08:19;102314.44;;;19.83;44.62
53550;BME280;67273;52.914;-0.982;2023-04-20T02:10:48;102316.31;;;19.83;44.67
53550;BME280;67273;52.914;-0.982;2023-04-20T02:13:16;102314.63;;;19.82;44.58
53550;BME280;67273;52.914;-0.982;2023-04-20T02:15:47;102303.94;;;19.80;44.69
53550;BME280;67273;52.914;-0.982;2023-04-20T02:18:15;102305.00;;;19.79;44.67
53550;BME280;67273;52.914;-0.982;2023-04-20T02:20:46;102313.19;;;19.79;44.73
53550;BME280;67273;52.914;-0.982;2023-04-20T02:23:14;102316.94;;;19.78;44.64
53550;BME280;67273;52.914;-0.982;2023-04-20T02:25:41;102309.78;;;19.77;44.59
53550;BME280;67273;52.914;-0.982;2023-04-20T02:28:07;102307.06;;;19.77;44.60
53550;BME280;67273;52.914;-0.982;2023-04-20T02:30:33;102308.13;;;19.76;44.54
53550;BME280;67273;52.914;-0.982;2023-04-20T02:33:02;102310.22;;;19.74;44.66
53550;BME280;67273;52.914;-0.982;2023-04-20T02:35:31;102304.78;;;19.74;44.62
53550;BME280;67273;52.914;-0.982;2023-04-20T02:37:58;102308.50;;;19.73;44.68
53550;BME280;67273;52.914;-0.982;2023-04-20T02:40:24;102304.94;;;19.72;44.67
53550;BME280;67273;52.914;-0.982;2023-04-20T02:42:52;102301.38;;;19.72;44.56
53550;BME280;67273;52.914;-0.982;2023-04-20T02:45:18;102303.44;;;19.70;44.80
53550;BME280;67273;52.914;-0.982;2023-04-20T02:47:46;102303.44;;;19.70;44.54
53550;BME280;67273;52.914;-0.982;2023-04-20T02:50:19;102301.78;;;19.69;44.50
53550;BME280;67273;52.914;-0.982;2023-04-20T02:53:03;102303.88;;;19.67;44.61
53550;BME280;67273;52.914;-0.982;2023-04-20T02:55:35;102301.16;;;19.67;44.61
53550;BME280;67273;52.914;-0.982;2023-04-20T02:58:13;102303.03;;;19.66;44.54
53550;BME280;67273;52.914;-0.982;2023-04-20T03:01:07;102305.94;;;19.65;44.60
53550;BME280;67273;52.914;-0.982;2023-04-20T03:03:40;102305.94;;;19.65;44.73
53550;BME280;67273;52.914;-0.982;2023-04-20T03:06:13;102301.56;;;19.64;44.53
53550;BME280;67273;52.914;-0.982;2023-04-20T03:08:46;102295.47;;;19.62;44.63
53550;BME280;67273;52.914;-0.982;2023-04-20T03:11:34;102294.63;;;19.61;44.57
53550;BME280;67273;52.914;-0.982;2023-04-20T03:14:03;102297.34;;;19.61;44.60
53550;BME280;67273;52.914;-0.982;2023-04-20T03:16:31;102293.78;;;19.61;44.38
53550;BME280;67273;52.914;-0.982;2023-04-20T03:19:00;102295.69;;;19.60;44.54
53550;BME280;67273;52.914;-0.982;2023-04-20T03:21:30;102299.44;;;19.59;44.51
53550;BME280;67273;52.914;-0.982;2023-04-20T03:23:58;102298.59;;;19.59;44.49
53550;BME280;67273;52.914;-0.982;2023-04-20T03:26:24;102297.97;;;19.56;44.70
53550;BME280;67273;52.914;-0.982;2023-04-20T03:29:11;102296.91;;;19.57;44.57
53550;BME280;67273;52.914;-0.982;2023-04-20T03:31:41;102295.44;;;19.55;44.41
53550;BME280;67273;52.914;-0.982;2023-04-20T03:34:09;102289.16;;;19.54;44.47
53550;BME280;67273;52.914;-0.982;2023-04-20T03:36:37;102296.47;;;19.54;44.47
53550;BME280;67273;52.914;-0.982;2023-04-20T03:39:03;102296.72;;;19.52;44.25
53550;BME280;67273;52.914;-0.982;2023-04-20T03:41:31;102281.41;;;19.51;44.32
53550;BME280;67273;52.914;-0.982;2023-04-20T03:43:59;102293.13;;;19.52;44.53
53550;BME280;67273;52.914;-0.982;2023-04-20T03:46:29;102296.72;;;19.52;44.42
53550;BME280;67273;52.914;-0.982;2023-04-20T03:48:59;102304.22;;;19.50;44.38
53550;BME280;67273;52.914;-0.982;2023-04-20T03:51:29;102302.56;;;19.49;44.36
53550;BME280;67273;52.914;-0.982;2023-04-20T03:53:58;102297.13;;;19.49;44.45
53550;BME280;67273;52.914;-0.982;2023-04-20T03:56:25;102294.59;;;19.48;44.32
53550;BME280;67273;52.914;-0.982;2023-04-20T03:58:53;102294.59;;;19.48;44.29
53550;BME280;67273;52.914;-0.982;2023-04-20T04:01:24;102301.94;;;19.47;44.47
53550;BME280;67273;52.914;-0.982;2023-04-20T04:03:52;102294.78;;;19.46;44.41
53550;BME280;67273;52.914;-0.982;2023-04-20T04:06:19;102295.00;;;19.45;44.36
53550;BME280;67273;52.914;-0.982;2023-04-20T04:08:47;102295.19;;;19.43;44.31
53550;BME280;67273;52.914;-0.982;2023-04-20T04:11:16;102301.50;;;19.44;44.30
53550;BME280;67273;52.914;-0.982;2023-04-20T04:13:46;102295.19;;;19.43;44.24
53550;BME280;67273;52.914;-0.982;2023-04-20T04:16:16;102300.00;;;19.41;44.16
53550;BME280;67273;52.914;-0.982;2023-04-20T04:18:45;102306.31;;;19.42;44.43
53550;BME280;67273;52.914;-0.982;2023-04-20T04:21:13;102303.81;;;19.40;44.30
53550;BME280;67273;52.914;-0.982;2023-04-20T04:23:43;102304.84;;;19.39;44.32
53550;BME280;67273;52.914;-0.982;2023-04-20T04:26:18;102307.56;;;19.39;44.25
53550;BME280;67273;52.914;-0.982;2023-04-20T04:28:50;102307.56;;;19.39;44.23
53550;BME280;67273;52.914;-0.982;2023-04-20T04:31:17;102304.19;;;19.37;44.18
53550;BME280;67273;52.914;-0.982;2023-04-20T04:33:44;102304.19;;;19.37;44.31
53550;BME280;67273;52.914;-0.982;2023-04-20T04:36:14;102303.56;;;19.35;44.31
53550;BME280;67273;52.914;-0.982;2023-04-20T04:38:41;102303.56;;;19.35;44.33
53550;BME280;67273;52.914;-0.982;2023-04-20T04:41:09;102304.59;;;19.34;44.29
53550;BME280;67273;52.914;-0.982;2023-04-20T04:43:36;102304.59;;;19.34;44.26
53550;BME280;67273;52.914;-0.982;2023-04-20T04:46:11;102313.84;;;19.33;44.21
53550;BME280;67273;52.914;-0.982;2023-04-20T04:48:39;102308.59;;;19.31;44.22
53550;BME280;67273;52.914;-0.982;2023-04-20T04:51:07;102314.25;;;19.30;44.16
53550;BME280;67273;52.914;-0.982;2023-04-20T04:53:33;102315.91;;;19.31;44.11
53550;BME280;67273;52.914;-0.982;2023-04-20T04:55:59;102307.09;;;19.29;44.13
53550;BME280;67273;52.914;-0.982;2023-04-20T04:58:24;102315.91;;;19.31;44.09
53550;BME280;67273;52.914;-0.982;2023-04-20T05:00:54;102317.16;;;19.28;44.04
53550;BME280;67273;52.914;-0.982;2023-04-20T05:03:21;102317.16;;;19.28;44.20
53550;BME280;67273;52.914;-0.982;2023-04-20T05:05:46;102316.34;;;19.28;44.42
53550;BME280;67273;52.914;-0.982;2023-04-20T05:08:12;102317.56;;;19.25;44.18
53550;BME280;67273;52.914;-0.982;2023-04-20T05:10:38;102314.00;;;19.25;44.12
53550;BME280;67273;52.914;-0.982;2023-04-20T05:13:04;102316.72;;;19.25;44.07
53550;BME280;67273;52.914;-0.982;2023-04-20T05:15:30;102325.94;;;19.24;44.06
53550;BME280;67273;52.914;-0.982;2023-04-20T05:17:57;102320.50;;;19.24;44.03
53550;BME280;67273;52.914;-0.982;2023-04-20T05:20:23;102327.00;;;19.23;44.02
53550;BME280;67273;52.914;-0.982;2023-04-20T05:22:49;102328.84;;;19.22;44.14
53550;BME280;67273;52.914;-0.982;2023-04-20T05:25:14;102322.56;;;19.22;44.05
53550;BME280;67273;52.914;-0.982;2023-04-20T05:27:40;102319.03;;;19.21;44.04
53550;BME280;67273;52.914;-0.982;2023-04-20T05:30:07;102321.75;;;19.21;44.03
53550;BME280;67273;52.914;-0.982;2023-04-20T05:32:33;102332.66;;;19.21;44.09
53550;BME280;67273;52.914;-0.982;2023-04-20T05:34:59;102330.13;;;19.19;43.98
53550;BME280;67273;52.914;-0.982;2023-04-20T05:37:25;102325.69;;;19.18;43.97
53550;BME280;67273;52.914;-0.982;2023-04-20T05:39:52;102333.88;;;19.18;43.98
53550;BME280;67273;52.914;-0.982;2023-04-20T05:42:17;102333.88;;;19.18;43.97
53550;BME280;67273;52.914;-0.982;2023-04-20T05:44:43;102327.59;;;19.18;44.05
53550;BME280;67273;52.914;-0.982;2023-04-20T05:47:09;102332.22;;;19.17;44.06
53550;BME280;67273;52.914;-0.982;2023-04-20T05:49:34;102333.25;;;19.16;43.95
53550;BME280;67273;52.914;-0.982;2023-04-20T05:52:02;102334.31;;;19.15;43.96
53550;BME280;67273;52.914;-0.982;2023-04-20T05:54:27;102334.31;;;19.15;43.92
53550;BME280;67273;52.914;-0.982;2023-04-20T05:56:53;102327.97;;;19.15;43.88
53550;BME280;67273;52.914;-0.982;2023-04-20T05:59:19;102343.50;;;19.14;43.94
53550;BME280;67273;52.914;-0.982;2023-04-20T06:01:45;102334.31;;;19.15;44.00
53550;BME280;67273;52.914;-0.982;2023-04-20T06:04:11;102338.06;;;19.14;43.87
53550;BME280;67273;52.914;-0.982;2023-04-20T06:06:37;102341.84;;;19.13;43.95
53550;BME280;67273;52.914;-0.982;2023-04-20T06:09:04;102341.84;;;19.13;43.91
53550;BME280;67273;52.914;-0.982;2023-04-20T06:11:30;102337.41;;;19.12;43.84
53550;BME280;67273;52.914;-0.982;2023-04-20T06:13:56;102348.31;;;19.12;43.89
53550;BME280;67273;52.914;-0.982;2023-04-20T06:16:21;102337.63;;;19.11;44.00
53550;BME280;67273;52.914;-0.982;2023-04-20T06:18:47;102347.69;;;19.10;43.85
53550;BME280;67273;52.914;-0.982;2023-04-20T06:21:13;102346.63;;;19.11;44.00
53550;BME280;67273;52.914;-0.982;2023-04-20T06:23:40;102344.97;;;19.10;43.96
53550;BME280;67273;52.914;-0.982;2023-04-20T06:26:08;102340.53;;;19.09;43.80
53550;BME280;67273;52.914;-0.982;2023-04-20T06:28:35;102340.53;;;19.09;43.97
53550;BME280;67273;52.914;-0.982;2023-04-20T06:31:01;102345.16;;;19.09;43.83
53550;BME280;67273;52.914;-0.982;2023-04-20T06:33:26;102346.00;;;19.09;44.02
53550;BME280;67273;52.914;-0.982;2023-04-20T06:35:52;102343.69;;;19.06;44.67
53550;BME280;67273;52.914;-0.982;2023-04-20T06:38:19;102339.28;;;19.05;44.52
53550;BME280;67273;52.914;-0.982;2023-04-20T06:40:45;102339.28;;;19.05;44.25
53550;BME280;67273;52.914;-0.982;2023-04-20T06:43:12;102338.44;;;19.05;44.48
53550;BME280;67273;52.914;-0.982;2023-04-20T06:45:38;102337.38;;;19.06;44.37
53550;BME280;67273;52.914;-0.982;2023-04-20T06:48:05;102335.50;;;19.06;44.29
53550;BME280;67273;52.914;-0.982;2023-04-20T06:50:31;102328.38;;;19.05;44.34
53550;BME280;67273;52.914;-0.982;2023-04-20T06:52:56;102325.66;;;19.05;44.32
53550;BME280;67273;52.914;-0.982;2023-04-20T06:55:22;102327.53;;;19.05;44.23
53550;BME280;67273;52.914;-0.982;2023-04-20T06:57:48;102328.56;;;19.04;44.35
53550;BME280;67273;52.914;-0.982;2023-04-20T07:00:16;102326.69;;;19.04;44.18
53550;BME280;67273;52.914;-0.982;2023-04-20T07:02:43;102320.41;;;19.04;44.48
53550;BME280;67273;52.914;-0.982;2023-04-20T07:05:09;102323.94;;;19.04;44.40
53550;BME280;67273;52.914;-0.982;2023-04-20T07:07:35;102319.56;;;19.03;44.50
53550;BME280;67273;52.914;-0.982;2023-04-20T07:10:02;102325.00;;;19.03;44.44
53550;BME280;67273;52.914;-0.982;2023-04-20T07:12:27;102326.69;;;19.04;44.47
53550;BME280;67273;52.914;-0.982;2023-04-20T07:14:53;102330.47;;;19.03;44.33
53550;BME280;67273;52.914;-0.982;2023-04-20T07:17:21;102325.00;;;19.03;44.42
53550;BME280;67273;52.914;-0.982;2023-04-20T07:19:47;102321.66;;;19.01;44.50
53550;BME280;67273;52.914;-0.982;2023-04-20T07:22:12;102318.69;;;19.03;44.46
53550;BME280;67273;52.914;-0.982;2023-04-20T07:24:38;102323.31;;;19.02;44.43
53550;BME280;67273;52.914;-0.982;2023-04-20T07:27:04;102323.31;;;19.02;44.51
53550;BME280;67273;52.914;-0.982;2023-04-20T07:29:30;102314.13;;;19.03;44.45
53550;BME280;67273;52.914;-0.982;2023-04-20T07:31:55;102314.13;;;19.03;44.33
53550;BME280;67273;52.914;-0.982;2023-04-20T07:34:23;102312.41;;;19.02;44.41
53550;BME280;67273;52.914;-0.982;2023-04-20T07:36:48;102311.41;;;19.03;44.37
53550;BME280;67273;52.914;-0.982;2023-04-20T07:39:14;102300.69;;;19.02;44.39
53550;BME280;67273;52.914;-0.982;2023-04-20T07:41:40;102307.81;;;19.03;44.19
53550;BME280;67273;52.914;-0.982;2023-04-20T07:44:06;102307.81;;;19.03;44.41
53550;BME280;67273;52.914;-0.982;2023-04-20T07:46:32;102306.97;;;19.02;44.26
53550;BME280;67273;52.914;-0.982;2023-04-20T07:48:57;102306.97;;;19.02;44.24
53550;BME280;67273;52.914;-0.982;2023-04-20T07:51:24;102312.41;;;19.02;44.35
53550;BME280;67273;52.914;-0.982;2023-04-20T07:53:51;102305.31;;;19.01;44.25
53550;BME280;67273;52.914;-0.982;2023-04-20T07:56:16;102301.53;;;19.02;44.38
53550;BME280;67273;52.914;-0.982;2023-04-20T07:58:42;102304.44;;;19.00;44.37
53550;BME280;67273;52.914;-0.982;2023-04-20T08:01:08;102301.72;;;19.00;44.36
53550;BME280;67273;52.914;-0.982;2023-04-20T08:03:35;102300.88;;;19.00;44.37
53550;BME280;67273;52.914;-0.982;2023-04-20T08:06:02;102296.47;;;18.99;44.32
53550;BME280;67273;52.914;-0.982;2023-04-20T08:08:31;102299.88;;;19.01;44.36
53550;BME280;67273;52.914;-0.982;2023-04-20T08:10:58;102294.41;;;19.01;44.37
53550;BME280;67273;52.914;-0.982;2023-04-20T08:13:24;102290.63;;;19.02;44.43
53550;BME280;67273;52.914;-0.982;2023-04-20T08:15:51;102288.97;;;19.01;44.42
53550;BME280;67273;52.914;-0.982;2023-04-20T08:18:17;102292.72;;;19.00;44.39
53550;BME280;67273;52.914;-0.982;2023-04-20T08:20:43;102292.72;;;19.00;44.59
53550;BME280;67273;52.914;-0.982;2023-04-20T08:23:10;102292.72;;;19.00;44.62
53550;BME280;67273;52.914;-0.982;2023-04-20T08:25:38;102287.28;;;19.00;44.61
53550;BME280;67273;52.914;-0.982;2023-04-20T08:28:05;102287.28;;;19.00;44.62
53550;BME280;67273;52.914;-0.982;2023-04-20T08:30:31;102273.66;;;19.00;44.64
53550;BME280;67273;52.914;-0.982;2023-04-20T08:32:57;102279.09;;;19.00;44.55
53550;BME280;67273;52.914;-0.982;2023-04-20T08:35:23;102272.81;;;18.99;44.57
53550;BME280;67273;52.914;-0.982;2023-04-20T08:37:49;102276.38;;;19.00;44.55
53550;BME280;67273;52.914;-0.982;2023-04-20T08:40:16;102273.66;;;19.00;44.61
53550;BME280;67273;52.914;-0.982;2023-04-20T08:42:43;102270.72;;;19.02;44.63
53550;BME280;67273;52.914;-0.982;2023-04-20T08:45:09;102269.91;;;19.01;44.61
53550;BME280;67273;52.914;-0.982;2023-04-20T08:47:35;102266.31;;;19.00;44.50
53550;BME280;67273;52.914;-0.982;2023-04-20T08:50:02;102268.22;;;19.00;44.45
53550;BME280;67273;52.914;-0.982;2023-04-20T08:52:28;102272.63;;;19.01;44.51
53550;BME280;67273;52.914;-0.982;2023-04-20T08:54:54;102265.47;;;19.00;44.50
53550;BME280;67273;52.914;-0.982;2023-04-20T08:57:20;102262.56;;;19.02;44.61
53550;BME280;67273;52.914;-0.982;2023-04-20T08:59:47;102261.72;;;19.01;44.45
53550;BME280;67273;52.914;-0.982;2023-04-20T09:02:13;102268.84;;;19.02;44.49
53550;BME280;67273;52.914;-0.982;2023-04-20T09:04:40;102257.94;;;19.02;44.50
53550;BME280;67273;52.914;-0.982;2023-04-20T09:07:06;102252.50;;;19.02;44.57
53550;BME280;67273;52.914;-0.982;2023-04-20T09:09:32;102252.50;;;19.02;44.36
53550;BME280;67273;52.914;-0.982;2023-04-20T09:12:01;102252.50;;;19.02;44.62
53550;BME280;67273;52.914;-0.982;2023-04-20T09:14:27;102247.88;;;19.03;44.61
53550;BME280;67273;52.914;-0.982;2023-04-20T09:16:57;102252.50;;;19.02;44.67
53550;BME280;67273;52.914;-0.982;2023-04-20T09:19:27;102245.16;;;19.03;44.55
53550;BME280;67273;52.914;-0.982;2023-04-20T09:21:54;102241.59;;;19.02;44.62
53550;BME280;67273;52.914;-0.982;2023-04-20T09:24:21;102247.03;;;19.02;44.73
53550;BME280;67273;52.914;-0.982;2023-04-20T09:26:47;102246.03;;;19.03;44.59
53550;BME280;67273;52.914;-0.982;2023-04-20T09:29:17;102236.97;;;19.03;44.72
53550;BME280;67273;52.914;-0.982;2023-04-20T09:31:43;102238.69;;;19.04;44.72
53550;BME280;67273;52.914;-0.982;2023-04-20T09:34:11;102235.13;;;19.03;44.80
53550;BME280;67273;52.914;-0.982;2023-04-20T09:36:38;102231.34;;;19.04;44.71
53550;BME280;67273;52.914;-0.982;2023-04-20T09:39:07;102232.19;;;19.05;44.78
53550;BME280;67273;52.914;-0.982;2023-04-20T09:41:34;102228.59;;;19.04;45.11
53550;BME280;67273;52.914;-0.982;2023-04-20T09:44:01;102227.78;;;19.04;44.79
53550;BME280;67273;52.914;-0.982;2023-04-20T09:46:28;102215.00;;;19.04;44.65
53550;BME280;67273;52.914;-0.982;2023-04-20T09:48:57;102212.25;;;19.04;44.84
53550;BME280;67273;52.914;-0.982;2023-04-20T09:51:25;102202.22;;;19.05;44.84
53550;BME280;67273;52.914;-0.982;2023-04-20T09:53:52;102203.91;;;19.06;44.84
53550;BME280;67273;52.914;-0.982;2023-04-20T09:56:19;102194.88;;;19.05;44.80
53550;BME280;67273;52.914;-0.982;2023-04-20T09:58:46;102196.59;;;19.06;44.78
53550;BME280;67273;52.914;-0.982;2023-04-20T10:01:12;102203.91;;;19.06;44.78
53550;BME280;67273;52.914;-0.982;2023-04-20T10:03:40;102188.41;;;19.06;44.71
53550;BME280;67273;52.914;-0.982;2023-04-20T10:06:17;102197.63;;;19.05;44.74
53550;BME280;67273;52.914;-0.982;2023-04-20T10:08:44;102195.72;;;19.06;44.59
53550;BME280;67273;52.914;-0.982;2023-04-20T10:11:10;102199.31;;;19.06;44.64
53550;BME280;67273;52.914;-0.982;2023-04-20T10:13:36;102194.69;;;19.07;44.83
53550;BME280;67273;52.914;-0.982;2023-04-20T10:16:02;102195.53;;;19.07;44.63
53550;BME280;67273;52.914;-0.982;2023-04-20T10:18:28;102186.53;;;19.07;44.76
53550;BME280;67273;52.914;-0.982;2023-04-20T10:21:04;102188.41;;;19.06;44.75
53550;BME280;67273;52.914;-0.982;2023-04-20T10:23:30;102188.41;;;19.06;44.70
53550;BME280;67273;52.914;-0.982;2023-04-20T10:25:58;102168.28;;;19.07;44.73
53550;BME280;67273;52.914;-0.982;2023-04-20T10:28:25;102168.28;;;19.07;44.83
53550;BME280;67273;52.914;-0.982;2023-04-20T10:31:02;102168.28;;;19.07;44.69
53550;BME280;67273;52.914;-0.982;2023-04-20T10:33:27;102173.72;;;19.07;44.61
53550;BME280;67273;52.914;-0.982;2023-04-20T10:35:54;102177.53;;;19.06;44.65
53550;BME280;67273;52.914;-0.982;2023-04-20T10:38:30;102169.97;;;19.08;44.65
53550;BME280;67273;52.914;-0.982;2023-04-20T10:41:04;102164.53;;;19.08;44.79
53550;BME280;67273;52.914;-0.982;2023-04-20T10:43:30;102159.06;;;19.08;44.72
53550;BME280;67273;52.914;-0.982;2023-04-20T10:45:56;102169.97;;;19.08;44.59
53550;BME280;67273;52.914;-0.982;2023-04-20T10:48:22;102173.53;;;19.09;44.69
53550;BME280;67273;52.914;-0.982;2023-04-20T10:50:47;102169.97;;;19.08;44.72
53550;BME280;67273;52.914;-0.982;2023-04-20T10:53:18;102157.38;;;19.07;44.83
53550;BME280;67273;52.914;-0.982;2023-04-20T10:55:44;102164.53;;;19.08;44.77
53550;BME280;67273;52.914;-0.982;2023-04-20T10:58:21;102160.75;;;19.09;44.76
53550;BME280;67273;52.914;-0.982;2023-04-20T11:00:56;102157.19;;;19.09;44.74
53550;BME280;67273;52.914;-0.982;2023-04-20T11:03:22;102142.72;;;19.08;44.65
53550;BME280;67273;52.914;-0.982;2023-04-20T11:05:49;102149.00;;;19.09;44.65
53550;BME280;67273;52.914;-0.982;2023-04-20T11:08:14;102139.81;;;19.10;44.86
53550;BME280;67273;52.914;-0.982;2023-04-20T11:10:41;102144.41;;;19.09;44.81
53550;BME280;67273;52.914;-0.982;2023-04-20T11:13:18;102133.50;;;19.09;44.86
53550;BME280;67273;52.914;-0.982;2023-04-20T11:15:45;102121.56;;;19.10;44.83
53550;BME280;67273;52.914;-0.982;2023-04-20T11:18:11;102130.56;;;19.11;44.74
53550;BME280;67273;52.914;-0.982;2023-04-20T11:20:37;102113.41;;;19.10;44.89
53550;BME280;67273;52.914;-0.982;2023-04-20T11:23:13;102114.22;;;19.11;44.82
53550;BME280;67273;52.914;-0.982;2023-04-20T11:25:48;102110.47;;;19.12;44.79
53550;BME280;67273;52.914;-0.982;2023-04-20T11:28:13;102111.28;;;19.12;44.70
53550;BME280;67273;52.914;-0.982;2023-04-20T11:30:39;102102.09;;;19.13;44.73
53550;BME280;67273;52.914;-0.982;2023-04-20T11:33:07;102102.72;;;19.15;44.51
53550;BME280;67273;52.914;-0.982;2023-04-20T11:35:35;102092.66;;;19.16;44.66
53550;BME280;67273;52.914;-0.982;2023-04-20T11:38:01;102089.09;;;19.15;44.71
53550;BME280;67273;52.914;-0.982;2023-04-20T11:40:27;102070.84;;;19.16;44.80
53550;BME280;67273;52.914;-0.982;2023-04-20T11:42:53;102088.03;;;19.16;44.83
53550;BME280;67273;52.914;-0.982;2023-04-20T11:45:18;102063.50;;;19.16;44.91
53550;BME280;67273;52.914;-0.982;2023-04-20T11:47:44;102069.81;;;19.17;44.80
53550;BME280;67273;52.914;-0.982;2023-04-20T11:50:12;102075.28;;;19.17;44.85
53550;BME280;67273;52.914;-0.982;2023-04-20T11:52:38;102068.97;;;19.16;44.84
53550;BME280;67273;52.914;-0.982;2023-04-20T11:55:05;102068.13;;;19.16;44.91
53550;BME280;67273;52.914;-0.982;2023-04-20T11:57:31;102063.50;;;19.16;44.90
53550;BME280;67273;52.914;-0.982;2023-04-20T11:59:57;102048.03;;;19.17;44.86
53550;BME280;67273;52.914;-0.982;2023-04-20T12:02:23;102066.03;;;19.18;44.98
53550;BME280;67273;52.914;-0.982;2023-04-20T12:04:49;102058.94;;;19.17;44.96
53550;BME280;67273;52.914;-0.982;2023-04-20T12:07:16;102062.47;;;19.17;44.92
53550;BME280;67273;52.914;-0.982;2023-04-20T12:09:42;102053.47;;;19.17;45.01
53550;BME280;67273;52.914;-0.982;2023-04-20T12:12:08;102054.31;;;19.17;45.07
53550;BME280;67273;52.914;-0.982;2023-04-20T12:14:34;102035.22;;;19.17;44.79
53550;BME280;67273;52.914;-0.982;2023-04-20T12:17:01;102046.13;;;19.17;44.65
53550;BME280;67273;52.914;-0.982;2023-04-20T12:19:28;102038.78;;;19.18;44.88
53550;BME280;67273;52.914;-0.982;2023-04-20T12:21:54;102032.50;;;19.17;45.14
53550;BME280;67273;52.914;-0.982;2023-04-20T12:24:21;102038.78;;;19.18;45.07
53550;BME280;67273;52.914;-0.982;2023-04-20T12:26:47;102025.16;;;19.18;44.95
53550;BME280;67273;52.914;-0.982;2023-04-20T12:29:13;102029.78;;;19.17;45.09
53550;BME280;67273;52.914;-0.982;2023-04-20T12:31:39;102035.84;;;19.19;45.12
53550;BME280;67273;52.914;-0.982;2023-04-20T12:34:05;102035.84;;;19.19;45.23
53550;BME280;67273;52.914;-0.982;2023-04-20T12:36:30;102027.69;;;19.19;45.01
53550;BME280;67273;52.914;-0.982;2023-04-20T12:38:57;102028.50;;;19.20;45.09
53550;BME280;67273;52.914;-0.982;2023-04-20T12:41:24;102020.34;;;19.20;45.14